Seabulk Arctic — WCY7054 — position and weather

sailwx.info

Track history (hours):
 
Tides and Currents Weather Stations Pressure Air Temp Water Temp Dewpoint Dewpoint Depression Visibility Wind Speed Wind Dir Waves Ship Positions

Seabulk Arctic

Owner: LIGHTSHIP TANKERS IV LLC, FORT LAUDERDALE, FL. More information available from US FCC via Universal Licensing System and Coast Guard Vessel Documentation Center.

Last reported at 2017-Sep-22 06:00 UTC. Time now 2017-Sep-22 22:35 UTC.
Position N 27°36' W 091°36'.

Type: Tanker. MMSI: 366826000.

Wind from 090 at 12 knots

Barometer 1013.9 mb
Air temperature 25.6 ° C
Visibility: greater than 27.0 NM

Date/timePositionNaut miles runAvg speedWind from/ knotsBaromVisibWave heightAir tempDewpointWater temp
2017-Sep-22 06:00N 27°36' W 091°36'15811.9 090 / 121013.927.0 25.6
2017-Sep-21 16:42N 29°45' W 093°21'0 0.4
2017-Sep-21 16:24N 29°45' W 093°21'410.0
2017-Sep-21 16:00N 29°49' W 093°21'5 9.4
2017-Sep-21 15:31N 29°54' W 093°21'4 8.4
2017-Sep-21 15:01N 29°58' W 093°20'3 6.6
2017-Sep-21 14:31N 30°01' W 093°20'4 7.5
2017-Sep-21 14:00N 30°05' W 093°20'3 6.1
2017-Sep-21 13:30N 30°08' W 093°20'2 3.9
2017-Sep-21 13:00N 30°10' W 093°19'1 1.4
2017-Sep-21 12:30N 30°11' W 093°19'0 0.0
2017-Sep-21 12:00N 30°11' W 093°19'0 0.0
2017-Sep-21 11:30N 30°11' W 093°19'0 0.0
2017-Sep-21 11:00N 30°11' W 093°19'0 0.0
2017-Sep-21 10:30N 30°11' W 093°19'0 0.0
2017-Sep-21 10:00N 30°11' W 093°19'0 0.0
2017-Sep-21 09:30N 30°11' W 093°19'0 0.0
2017-Sep-21 09:00N 30°11' W 093°19'0 0.0
2017-Sep-21 08:30N 30°11' W 093°19'0 0.0
2017-Sep-21 08:00N 30°11' W 093°19'0 0.0
2017-Sep-21 07:30N 30°11' W 093°19'0 0.0
2017-Sep-21 07:00N 30°11' W 093°19'0 0.0
2017-Sep-21 06:27N 30°11' W 093°19'0 0.0
2017-Sep-21 06:00N 30°11' W 093°19'0 0.0
2017-Sep-21 05:30N 30°11' W 093°19'0 0.0
2017-Sep-21 05:00N 30°11' W 093°19'0 0.0
2017-Sep-21 04:30N 30°11' W 093°19'0 0.0
2017-Sep-21 04:00N 30°11' W 093°19'0 0.0
2017-Sep-21 03:30N 30°11' W 093°19'0 0.0
2017-Sep-21 03:00N 30°11' W 093°19'0 0.0
2017-Sep-21 02:30N 30°11' W 093°19'0 0.0
2017-Sep-21 02:00N 30°11' W 093°19'0 0.0
2017-Sep-21 01:30N 30°11' W 093°19'0 0.0
2017-Sep-21 01:00N 30°11' W 093°19'0 0.0
2017-Sep-21 00:30N 30°11' W 093°19'0 0.0
2017-Sep-21 00:00N 30°11' W 093°19'0 0.0
2017-Sep-20 23:30N 30°11' W 093°19'0 0.0
2017-Sep-20 23:00N 30°11' W 093°19'0 0.0
2017-Sep-20 22:30N 30°11' W 093°19'0 0.0
2017-Sep-20 22:00N 30°11' W 093°19'0 0.0
2017-Sep-20 21:30N 30°11' W 093°19'0 0.0
2017-Sep-20 21:00N 30°11' W 093°19'0 0.0
2017-Sep-20 20:30N 30°11' W 093°19'0 0.0
2017-Sep-20 20:00N 30°11' W 093°19'0 0.0
2017-Sep-20 19:30N 30°11' W 093°19'0 0.0
2017-Sep-20 19:00N 30°11' W 093°19'0 0.0
2017-Sep-20 18:30N 30°11' W 093°19'0 0.0
2017-Sep-20 18:00N 30°11' W 093°19'0 0.0
2017-Sep-20 17:30N 30°11' W 093°19'0 0.0
2017-Sep-20 17:00N 30°11' W 093°19'0 0.0
2017-Sep-20 16:30N 30°11' W 093°19'0 0.0
2017-Sep-20 16:00N 30°11' W 093°19'0 0.0
2017-Sep-20 15:30N 30°11' W 093°19'0 0.0
2017-Sep-20 15:00N 30°11' W 093°19'0 0.0
2017-Sep-20 14:00N 30°11' W 093°19'0 0.0
2017-Sep-20 13:30N 30°11' W 093°19'0 0.0
2017-Sep-20 13:00N 30°11' W 093°19'0 0.0
2017-Sep-20 12:30N 30°11' W 093°19'0 0.0
2017-Sep-20 12:00N 30°11' W 093°19'0 0.0
2017-Sep-20 11:30N 30°11' W 093°19'0 0.0
2017-Sep-20 11:00N 30°11' W 093°19'0 0.0
2017-Sep-20 10:30N 30°11' W 093°19'0 0.0
2017-Sep-20 10:00N 30°11' W 093°19'0 0.0
2017-Sep-20 09:30N 30°11' W 093°19'0 0.0
2017-Sep-20 09:00N 30°11' W 093°19'0 0.0
2017-Sep-20 08:30N 30°11' W 093°19'0 0.0
2017-Sep-20 08:00N 30°11' W 093°19'0 0.0
2017-Sep-20 07:30N 30°11' W 093°19'0 0.0
2017-Sep-20 07:00N 30°11' W 093°19'0 0.0
2017-Sep-20 06:30N 30°11' W 093°19'0 0.0
2017-Sep-20 06:00N 30°11' W 093°19'0 0.0
2017-Sep-20 05:30N 30°11' W 093°19'0 0.0
2017-Sep-20 05:00N 30°11' W 093°19'0 0.0
2017-Sep-20 04:30N 30°11' W 093°19'0 0.0
2017-Sep-20 04:00N 30°11' W 093°19'0 0.0
2017-Sep-20 03:27N 30°11' W 093°19'0 0.0
2017-Sep-20 03:00N 30°11' W 093°19'0 0.0
2017-Sep-20 02:30N 30°11' W 093°19'0 0.0
2017-Sep-20 02:00N 30°11' W 093°19'0 0.0
2017-Sep-20 01:30N 30°11' W 093°19'0 0.0
2017-Sep-20 01:00N 30°11' W 093°19'0 0.0
2017-Sep-20 00:30N 30°11' W 093°19'1 1.2
2017-Sep-20 00:00N 30°11' W 093°18'2 3.6
2017-Sep-19 23:30N 30°09' W 093°20'2 4.9
2017-Sep-19 23:00N 30°07' W 093°20'4 7.4
2017-Sep-19 22:30N 30°03' W 093°20'4 7.8
2017-Sep-19 22:00N 29°59' W 093°20'5 9.3
2017-Sep-19 21:30N 29°55' W 093°20'510.0
2017-Sep-19 21:00N 29°50' W 093°21'5 9.3
2017-Sep-19 20:30N 29°45' W 093°21'32112.1
2017-Sep-18 18:00N 26°54' W 088°12'98 8.2 060 / 71015.227.0 34.4
2017-Sep-18 06:00N 26°06' W 086°36'20917.4 040 / 81014.527.0 25.0
2017-Sep-17 18:00N 24°18' W 083°18'18711.4 040 / 81014.027.0 34.4
2017-Sep-17 01:38N 25°18' W 080°03'215.7
2017-Sep-17 01:30N 25°21' W 080°02'714.7
2017-Sep-17 01:00N 25°28' W 080°01'713.4
2017-Sep-17 00:30N 25°34' W 079°60'613.2
2017-Sep-17 00:00N 25°41' W 079°59'612.9
2017-Sep-16 23:30N 25°47' W 079°59'612.8
2017-Sep-16 23:00N 25°54' W 079°59'612.4
2017-Sep-16 22:30N 25°60' W 079°59'713.1
2017-Sep-16 22:00N 26°04' W 080°04'3 6.1
2017-Sep-16 21:31N 26°06' W 080°07'0 0.3
2017-Sep-16 20:58N 26°06' W 080°07'0 0.0
2017-Sep-16 20:28N 26°06' W 080°07'0 0.0
2017-Sep-16 19:58N 26°06' W 080°07'0 0.0
2017-Sep-16 19:28N 26°06' W 080°07'0 0.0
2017-Sep-16 18:58N 26°06' W 080°07'0 0.0
2017-Sep-16 18:28N 26°06' W 080°07'0 0.0
2017-Sep-16 17:58N 26°06' W 080°07'0 0.0
2017-Sep-16 17:28N 26°06' W 080°07'0 0.0
2017-Sep-16 16:58N 26°06' W 080°07'0 0.0
2017-Sep-16 16:28N 26°06' W 080°07'0 0.0
2017-Sep-16 15:58N 26°06' W 080°07'0 0.0
2017-Sep-16 15:28N 26°06' W 080°07'0 0.0
2017-Sep-16 14:58N 26°06' W 080°07'0 0.0
2017-Sep-16 14:28N 26°06' W 080°07'0 0.0
2017-Sep-16 13:58N 26°06' W 080°07'0 0.0
2017-Sep-16 13:28N 26°06' W 080°07'0 0.0
2017-Sep-16 12:58N 26°06' W 080°07'0 0.0
2017-Sep-16 12:28N 26°06' W 080°07'0 0.0
2017-Sep-16 11:58N 26°06' W 080°07'0 0.0
2017-Sep-16 11:28N 26°06' W 080°07'0 0.0
2017-Sep-16 10:58N 26°06' W 080°07'0 0.0
2017-Sep-16 10:28N 26°06' W 080°07'0 0.0
2017-Sep-16 09:55N 26°06' W 080°07'0 0.0
2017-Sep-16 09:28N 26°06' W 080°07'0 0.0
2017-Sep-16 08:58N 26°06' W 080°07'0 0.0
2017-Sep-16 08:25N 26°06' W 080°07'0 0.0
2017-Sep-16 07:58N 26°06' W 080°07'0 0.0
2017-Sep-16 07:28N 26°06' W 080°07'0 0.0
2017-Sep-16 06:58N 26°06' W 080°07'0 0.0
2017-Sep-16 06:28N 26°06' W 080°07'0 0.0
2017-Sep-16 05:58N 26°06' W 080°07'0 0.0
2017-Sep-16 05:28N 26°06' W 080°07'0 0.0
2017-Sep-16 04:58N 26°06' W 080°07'0 0.0
2017-Sep-16 04:28N 26°06' W 080°07'0 0.0
2017-Sep-16 03:58N 26°06' W 080°07'0 0.0
2017-Sep-16 03:28N 26°06' W 080°07'0 0.0
2017-Sep-16 02:58N 26°06' W 080°07'0 0.0
2017-Sep-16 02:28N 26°06' W 080°07'0 0.0
2017-Sep-16 01:58N 26°06' W 080°07'0 0.0
2017-Sep-16 01:28N 26°06' W 080°07'0 0.0
2017-Sep-16 00:58N 26°06' W 080°07'0 0.0
2017-Sep-16 00:28N 26°06' W 080°07'0 0.0
2017-Sep-15 23:58N 26°06' W 080°07'0 0.0
2017-Sep-15 23:28N 26°06' W 080°07'0 0.0
2017-Sep-15 22:58N 26°06' W 080°07'0 0.0
2017-Sep-15 22:28N 26°06' W 080°07'0 0.0
2017-Sep-15 21:58N 26°06' W 080°07'0 0.0
2017-Sep-15 21:28N 26°06' W 080°07'0 0.0
2017-Sep-15 20:58N 26°06' W 080°07'0 0.0
2017-Sep-15 20:28N 26°06' W 080°07'0 0.0
2017-Sep-15 19:58N 26°06' W 080°07'0 0.0
2017-Sep-15 19:28N 26°06' W 080°07'0 0.0
2017-Sep-15 18:58N 26°06' W 080°07'0 0.0
2017-Sep-15 18:28N 26°06' W 080°07'0 0.0
2017-Sep-15 17:58N 26°06' W 080°07'0 0.0
2017-Sep-15 17:28N 26°06' W 080°07'0 0.0
2017-Sep-15 17:00N 26°06' W 080°07'0 0.6
2017-Sep-15 16:30N 26°06' W 080°07'4 7.8
2017-Sep-15 16:00N 26°06' W 080°03'2 3.4
2017-Sep-15 15:30N 26°04' W 080°02'611.9
2017-Sep-15 15:01N 25°59' W 080°00'816.6
2017-Sep-15 14:30N 25°51' W 079°58'816.5
2017-Sep-15 14:01N 25°43' W 079°56'816.3
2017-Sep-15 13:31N 25°35' W 079°54'816.4
2017-Sep-15 13:00N 25°27' W 079°56'816.2
2017-Sep-15 12:30N 25°19' W 079°58'4613.8
2017-Sep-15 09:11N 24°40' W 080°26'314.4
2017-Sep-15 08:59N 24°39' W 080°29'1115.6
2017-Sep-15 08:15N 24°35' W 080°40'416.3
2017-Sep-15 08:01N 24°33' W 080°44'1216.5
2017-Sep-15 07:18N 24°28' W 080°56'18113.6
2017-Sep-14 18:00N 25°00' W 084°12'19116.0 120 / 71014.027.0 28.9
2017-Sep-14 06:00N 26°42' W 087°12'18015.0 150 / 91012.027.0 26.1
2017-Sep-13 18:00N 27°18' W 090°30'20412.7 200 / 31012.227.0 27.8
2017-Sep-13 01:59N 29°38' W 093°19'5 9.8
2017-Sep-13 01:30N 29°42' W 093°20'4 8.8
2017-Sep-13 01:00N 29°47' W 093°21'4 8.8
2017-Sep-13 00:30N 29°51' W 093°21'5 9.6
2017-Sep-13 00:00N 29°56' W 093°20'4 8.6
2017-Sep-12 23:30N 30°00' W 093°20'4 7.6
2017-Sep-12 23:00N 30°04' W 093°20'4 7.4
2017-Sep-12 22:30N 30°07' W 093°20'3 5.2
2017-Sep-12 22:00N 30°10' W 093°19'1 1.2
2017-Sep-12 21:25N 30°11' W 093°19'0 0.0
2017-Sep-12 20:58N 30°11' W 093°19'0 0.0
2017-Sep-12 20:28N 30°11' W 093°19'0 0.0
2017-Sep-12 19:58N 30°11' W 093°19'0 0.0
2017-Sep-12 19:25N 30°11' W 093°19'0 0.0
2017-Sep-12 18:58N 30°11' W 093°19'0 0.0
2017-Sep-12 18:28N 30°11' W 093°19'0 0.0
2017-Sep-12 17:58N 30°11' W 093°19'0 0.0
2017-Sep-12 17:28N 30°11' W 093°19'0 0.0
2017-Sep-12 16:58N 30°11' W 093°19'0 0.0
2017-Sep-12 16:28N 30°11' W 093°19'0 0.0
2017-Sep-12 15:58N 30°11' W 093°19'0 0.0
2017-Sep-12 15:28N 30°11' W 093°19'0 0.0
2017-Sep-12 14:58N 30°11' W 093°19'0 0.0
2017-Sep-12 14:28N 30°11' W 093°19'0 0.0
2017-Sep-12 06:19N 30°11' W 093°19'0 0.0
2017-Sep-12 06:01N 30°11' W 093°19'  
Track history (hours):
 
Tides and Currents Weather Stations Pressure Air Temp Water Temp Dewpoint Dewpoint Depression Visibility Wind Speed Wind Dir Waves Ship Positions

Seabulk Arctic

Owner: LIGHTSHIP TANKERS IV LLC, FORT LAUDERDALE, FL. More information available from US FCC via Universal Licensing System and Coast Guard Vessel Documentation Center.

Last reported at 2017-Sep-22 06:00 UTC. Time now 2017-Sep-22 22:35 UTC.
Position N 27°36' W 091°36'.

Type: Tanker. MMSI: 366826000.

Wind from 090 at 12 knots

Barometer 1013.9 mb
Air temperature 25.6 ° C
Visibility: greater than 27.0 NM

Date/timePositionNaut miles runAvg speedWind from/ knotsBaromVisibWave heightAir tempDewpointWater temp
2017-Sep-22 06:00N 27°36' W 091°36'15811.9 090 / 121013.927.0 25.6
2017-Sep-21 16:42N 29°45' W 093°21'0 0.4
2017-Sep-21 16:24N 29°45' W 093°21'410.0
2017-Sep-21 16:00N 29°49' W 093°21'5 9.4
2017-Sep-21 15:31N 29°54' W 093°21'4 8.4
2017-Sep-21 15:01N 29°58' W 093°20'3 6.6
2017-Sep-21 14:31N 30°01' W 093°20'4 7.5
2017-Sep-21 14:00N 30°05' W 093°20'3 6.1
2017-Sep-21 13:30N 30°08' W 093°20'2 3.9
2017-Sep-21 13:00N 30°10' W 093°19'1 1.4
2017-Sep-21 12:30N 30°11' W 093°19'0 0.0
2017-Sep-21 12:00N 30°11' W 093°19'0 0.0
2017-Sep-21 11:30N 30°11' W 093°19'0 0.0
2017-Sep-21 11:00N 30°11' W 093°19'0 0.0
2017-Sep-21 10:30N 30°11' W 093°19'0 0.0
2017-Sep-21 10:00N 30°11' W 093°19'0 0.0
2017-Sep-21 09:30N 30°11' W 093°19'0 0.0
2017-Sep-21 09:00N 30°11' W 093°19'0 0.0
2017-Sep-21 08:30N 30°11' W 093°19'0 0.0
2017-Sep-21 08:00N 30°11' W 093°19'0 0.0
2017-Sep-21 07:30N 30°11' W 093°19'0 0.0
2017-Sep-21 07:00N 30°11' W 093°19'0 0.0
2017-Sep-21 06:27N 30°11' W 093°19'0 0.0
2017-Sep-21 06:00N 30°11' W 093°19'0 0.0
2017-Sep-21 05:30N 30°11' W 093°19'0 0.0
2017-Sep-21 05:00N 30°11' W 093°19'0 0.0
2017-Sep-21 04:30N 30°11' W 093°19'0 0.0
2017-Sep-21 04:00N 30°11' W 093°19'0 0.0
2017-Sep-21 03:30N 30°11' W 093°19'0 0.0
2017-Sep-21 03:00N 30°11' W 093°19'0 0.0
2017-Sep-21 02:30N 30°11' W 093°19'0 0.0
2017-Sep-21 02:00N 30°11' W 093°19'0 0.0
2017-Sep-21 01:30N 30°11' W 093°19'0 0.0
2017-Sep-21 01:00N 30°11' W 093°19'0 0.0
2017-Sep-21 00:30N 30°11' W 093°19'0 0.0
2017-Sep-21 00:00N 30°11' W 093°19'0 0.0
2017-Sep-20 23:30N 30°11' W 093°19'0 0.0
2017-Sep-20 23:00N 30°11' W 093°19'0 0.0
2017-Sep-20 22:30N 30°11' W 093°19'0 0.0
2017-Sep-20 22:00N 30°11' W 093°19'0 0.0
2017-Sep-20 21:30N 30°11' W 093°19'0 0.0
2017-Sep-20 21:00N 30°11' W 093°19'0 0.0
2017-Sep-20 20:30N 30°11' W 093°19'0 0.0
2017-Sep-20 20:00N 30°11' W 093°19'0 0.0
2017-Sep-20 19:30N 30°11' W 093°19'0 0.0
2017-Sep-20 19:00N 30°11' W 093°19'0 0.0
2017-Sep-20 18:30N 30°11' W 093°19'0 0.0
2017-Sep-20 18:00N 30°11' W 093°19'0 0.0
2017-Sep-20 17:30N 30°11' W 093°19'0 0.0
2017-Sep-20 17:00N 30°11' W 093°19'0 0.0
2017-Sep-20 16:30N 30°11' W 093°19'0 0.0
2017-Sep-20 16:00N 30°11' W 093°19'0 0.0
2017-Sep-20 15:30N 30°11' W 093°19'0 0.0
2017-Sep-20 15:00N 30°11' W 093°19'0 0.0
2017-Sep-20 14:00N 30°11' W 093°19'0 0.0
2017-Sep-20 13:30N 30°11' W 093°19'0 0.0
2017-Sep-20 13:00N 30°11' W 093°19'0 0.0
2017-Sep-20 12:30N 30°11' W 093°19'0 0.0
2017-Sep-20 12:00N 30°11' W 093°19'0 0.0
2017-Sep-20 11:30N 30°11' W 093°19'0 0.0
2017-Sep-20 11:00N 30°11' W 093°19'0 0.0
2017-Sep-20 10:30N 30°11' W 093°19'0 0.0
2017-Sep-20 10:00N 30°11' W 093°19'0 0.0
2017-Sep-20 09:30N 30°11' W 093°19'0 0.0
2017-Sep-20 09:00N 30°11' W 093°19'0 0.0
2017-Sep-20 08:30N 30°11' W 093°19'0 0.0
2017-Sep-20 08:00N 30°11' W 093°19'0 0.0
2017-Sep-20 07:30N 30°11' W 093°19'0 0.0
2017-Sep-20 07:00N 30°11' W 093°19'0 0.0
2017-Sep-20 06:30N 30°11' W 093°19'0 0.0
2017-Sep-20 06:00N 30°11' W 093°19'0 0.0
2017-Sep-20 05:30N 30°11' W 093°19'0 0.0
2017-Sep-20 05:00N 30°11' W 093°19'0 0.0
2017-Sep-20 04:30N 30°11' W 093°19'0 0.0
2017-Sep-20 04:00N 30°11' W 093°19'0 0.0
2017-Sep-20 03:27N 30°11' W 093°19'0 0.0
2017-Sep-20 03:00N 30°11' W 093°19'0 0.0
2017-Sep-20 02:30N 30°11' W 093°19'0 0.0
2017-Sep-20 02:00N 30°11' W 093°19'0 0.0
2017-Sep-20 01:30N 30°11' W 093°19'0 0.0
2017-Sep-20 01:00N 30°11' W 093°19'0 0.0
2017-Sep-20 00:30N 30°11' W 093°19'1 1.2
2017-Sep-20 00:00N 30°11' W 093°18'2 3.6
2017-Sep-19 23:30N 30°09' W 093°20'2 4.9
2017-Sep-19 23:00N 30°07' W 093°20'4 7.4
2017-Sep-19 22:30N 30°03' W 093°20'4 7.8
2017-Sep-19 22:00N 29°59' W 093°20'5 9.3
2017-Sep-19 21:30N 29°55' W 093°20'510.0
2017-Sep-19 21:00N 29°50' W 093°21'5 9.3
2017-Sep-19 20:30N 29°45' W 093°21'32112.1
2017-Sep-18 18:00N 26°54' W 088°12'98 8.2 060 / 71015.227.0 34.4
2017-Sep-18 06:00N 26°06' W 086°36'20917.4 040 / 81014.527.0 25.0
2017-Sep-17 18:00N 24°18' W 083°18'18711.4 040 / 81014.027.0 34.4
2017-Sep-17 01:38N 25°18' W 080°03'215.7
2017-Sep-17 01:30N 25°21' W 080°02'714.7
2017-Sep-17 01:00N 25°28' W 080°01'713.4
2017-Sep-17 00:30N 25°34' W 079°60'613.2
2017-Sep-17 00:00N 25°41' W 079°59'612.9
2017-Sep-16 23:30N 25°47' W 079°59'612.8
2017-Sep-16 23:00N 25°54' W 079°59'612.4
2017-Sep-16 22:30N 25°60' W 079°59'713.1
2017-Sep-16 22:00N 26°04' W 080°04'3 6.1
2017-Sep-16 21:31N 26°06' W 080°07'0 0.3
2017-Sep-16 20:58N 26°06' W 080°07'0 0.0
2017-Sep-16 20:28N 26°06' W 080°07'0 0.0
2017-Sep-16 19:58N 26°06' W 080°07'0 0.0
2017-Sep-16 19:28N 26°06' W 080°07'0 0.0
2017-Sep-16 18:58N 26°06' W 080°07'0 0.0
2017-Sep-16 18:28N 26°06' W 080°07'0 0.0
2017-Sep-16 17:58N 26°06' W 080°07'0 0.0
2017-Sep-16 17:28N 26°06' W 080°07'0 0.0
2017-Sep-16 16:58N 26°06' W 080°07'0 0.0
2017-Sep-16 16:28N 26°06' W 080°07'0 0.0
2017-Sep-16 15:58N 26°06' W 080°07'0 0.0
2017-Sep-16 15:28N 26°06' W 080°07'0 0.0
2017-Sep-16 14:58N 26°06' W 080°07'0 0.0
2017-Sep-16 14:28N 26°06' W 080°07'0 0.0
2017-Sep-16 13:58N 26°06' W 080°07'0 0.0
2017-Sep-16 13:28N 26°06' W 080°07'0 0.0
2017-Sep-16 12:58N 26°06' W 080°07'0 0.0
2017-Sep-16 12:28N 26°06' W 080°07'0 0.0
2017-Sep-16 11:58N 26°06' W 080°07'0 0.0
2017-Sep-16 11:28N 26°06' W 080°07'0 0.0
2017-Sep-16 10:58N 26°06' W 080°07'0 0.0
2017-Sep-16 10:28N 26°06' W 080°07'0 0.0
2017-Sep-16 09:55N 26°06' W 080°07'0 0.0
2017-Sep-16 09:28N 26°06' W 080°07'0 0.0
2017-Sep-16 08:58N 26°06' W 080°07'0 0.0
2017-Sep-16 08:25N 26°06' W 080°07'0 0.0
2017-Sep-16 07:58N 26°06' W 080°07'0 0.0
2017-Sep-16 07:28N 26°06' W 080°07'0 0.0
2017-Sep-16 06:58N 26°06' W 080°07'0 0.0
2017-Sep-16 06:28N 26°06' W 080°07'0 0.0
2017-Sep-16 05:58N 26°06' W 080°07'0 0.0
2017-Sep-16 05:28N 26°06' W 080°07'0 0.0
2017-Sep-16 04:58N 26°06' W 080°07'0 0.0
2017-Sep-16 04:28N 26°06' W 080°07'0 0.0
2017-Sep-16 03:58N 26°06' W 080°07'0 0.0
2017-Sep-16 03:28N 26°06' W 080°07'0 0.0
2017-Sep-16 02:58N 26°06' W 080°07'0 0.0
2017-Sep-16 02:28N 26°06' W 080°07'0 0.0
2017-Sep-16 01:58N 26°06' W 080°07'0 0.0
2017-Sep-16 01:28N 26°06' W 080°07'0 0.0
2017-Sep-16 00:58N 26°06' W 080°07'0 0.0
2017-Sep-16 00:28N 26°06' W 080°07'0 0.0
2017-Sep-15 23:58N 26°06' W 080°07'0 0.0
2017-Sep-15 23:28N 26°06' W 080°07'0 0.0
2017-Sep-15 22:58N 26°06' W 080°07'0 0.0
2017-Sep-15 22:28N 26°06' W 080°07'0 0.0
2017-Sep-15 21:58N 26°06' W 080°07'0 0.0
2017-Sep-15 21:28N 26°06' W 080°07'0 0.0
2017-Sep-15 20:58N 26°06' W 080°07'0 0.0
2017-Sep-15 20:28N 26°06' W 080°07'0 0.0
2017-Sep-15 19:58N 26°06' W 080°07'0 0.0
2017-Sep-15 19:28N 26°06' W 080°07'0 0.0
2017-Sep-15 18:58N 26°06' W 080°07'0 0.0
2017-Sep-15 18:28N 26°06' W 080°07'0 0.0
2017-Sep-15 17:58N 26°06' W 080°07'0 0.0
2017-Sep-15 17:28N 26°06' W 080°07'0 0.0
2017-Sep-15 17:00N 26°06' W 080°07'0 0.6
2017-Sep-15 16:30N 26°06' W 080°07'4 7.8
2017-Sep-15 16:00N 26°06' W 080°03'2 3.4
2017-Sep-15 15:30N 26°04' W 080°02'611.9
2017-Sep-15 15:01N 25°59' W 080°00'816.6
2017-Sep-15 14:30N 25°51' W 079°58'816.5
2017-Sep-15 14:01N 25°43' W 079°56'816.3
2017-Sep-15 13:31N 25°35' W 079°54'816.4
2017-Sep-15 13:00N 25°27' W 079°56'816.2
2017-Sep-15 12:30N 25°19' W 079°58'4613.8
2017-Sep-15 09:11N 24°40' W 080°26'314.4
2017-Sep-15 08:59N 24°39' W 080°29'1115.6
2017-Sep-15 08:15N 24°35' W 080°40'416.3
2017-Sep-15 08:01N 24°33' W 080°44'1216.5
2017-Sep-15 07:18N 24°28' W 080°56'18113.6
2017-Sep-14 18:00N 25°00' W 084°12'19116.0 120 / 71014.027.0 28.9
2017-Sep-14 06:00N 26°42' W 087°12'18015.0 150 / 91012.027.0 26.1
2017-Sep-13 18:00N 27°18' W 090°30'20412.7 200 / 31012.227.0 27.8
2017-Sep-13 01:59N 29°38' W 093°19'5 9.8
2017-Sep-13 01:30N 29°42' W 093°20'4 8.8
2017-Sep-13 01:00N 29°47' W 093°21'4 8.8
2017-Sep-13 00:30N 29°51' W 093°21'5 9.6
2017-Sep-13 00:00N 29°56' W 093°20'4 8.6
2017-Sep-12 23:30N 30°00' W 093°20'4 7.6
2017-Sep-12 23:00N 30°04' W 093°20'4 7.4
2017-Sep-12 22:30N 30°07' W 093°20'3 5.2
2017-Sep-12 22:00N 30°10' W 093°19'1 1.2
2017-Sep-12 21:25N 30°11' W 093°19'0 0.0
2017-Sep-12 20:58N 30°11' W 093°19'0 0.0
2017-Sep-12 20:28N 30°11' W 093°19'0 0.0
2017-Sep-12 19:58N 30°11' W 093°19'0 0.0
2017-Sep-12 19:25N 30°11' W 093°19'0 0.0
2017-Sep-12 18:58N 30°11' W 093°19'0 0.0
2017-Sep-12 18:28N 30°11' W 093°19'0 0.0
2017-Sep-12 17:58N 30°11' W 093°19'0 0.0
2017-Sep-12 17:28N 30°11' W 093°19'0 0.0
2017-Sep-12 16:58N 30°11' W 093°19'0 0.0
2017-Sep-12 16:28N 30°11' W 093°19'0 0.0
2017-Sep-12 15:58N 30°11' W 093°19'0 0.0
2017-Sep-12 15:28N 30°11' W 093°19'0 0.0
2017-Sep-12 14:58N 30°11' W 093°19'0 0.0
2017-Sep-12 14:28N 30°11' W 093°19'0 0.0
2017-Sep-12 06:19N 30°11' W 093°19'0 0.0
2017-Sep-12 06:01N 30°11' W 093°19'  

Dump ship's entire track history